Lille O'Sprint Festival Urbain Marcq en Baroeul (59) - B

Date : 27/11/2021
Valeur du circuit : 5300666 point × seconde

Place Nom Licence Catégorie Club Temps CN à J-15 Valeur Points Différence Nouveau CN
1 MERCIER Agnès 23079 D35 5907HF 0:15:19 6118 5622442 5768 -350 6137
2 LENOBLE Lou 23559 D21 6208HF 0:16:17 0 5425 5208
3 LABROCHE Claire 26570 D21 0207HF 0:17:20 4973 5171920 5097 +124 5046
4 VIVOT Alisée 33537 D35 5907HF 0:17:31 4874 5122574 5043 +169 4996
5 BECU Cindy 5139 D40 6008HF 0:17:42 5766 6123492 4991 -775 5766
6 LAUDE MAGALI 28688 D45 6208HF 0:17:46 5015 5345990 4972 -43 5034
7 PAULY Lilou 21041 D20 1705NA 0:18:16 5893 6458728 4836 -1057 5985
8 SOLTYSIAK Charlotte 30322 D20 5906HF 0:18:38 4818 5386524 4741 -77 4841
9 MARECHAL Margaux 34384 D20 6205HF 0:19:12 3549 4088448 4601 +1052 3844
10 HOUTE Valérie 39876 D35 6008HF 0:19:37 3730 4390210 4504 +774 4447
11 MOULIERE Camille 2892 D45 0207HF 0:21:09 5024 6375456 4177 -847 4985
12 LABIT Léonie 30349 D21 5907HF 0:21:49 3781 4949329 4049 +268 3968
13 LEFEVRE Lou 30950 D21 5907HF 0:21:50 4076 5339560 4046 -30 4100
14 WARGNEZ Anne-Lise 35847 D35 5909HF 0:22:08 2447 3249616 3991 +1642 3485
15 MARTIN Pascale 23568 D60 7512IF 0:22:41 4428 6026508 3895 -533 4407
16 TIZZONI Clarisse 31630 D21 5906HF 0:23:07 3675 5097225 3822 +220 3712
17 SENCE Marie-Pierre 29897 D45 5906HF 0:23:07 3566 4946042 3822 +256 3604
18 GUILMAIN Melanie 20572 D21 6208HF 0:23:12 4177 5814384 3808 -369 4177
19 ARROQUI Anne-sophie 23424 D50 5909HF 0:23:47 3806 5431162 3715 -91 3772
20 WOJTKOWIAK Christelle 41996 D45 5909HF 0:24:06 3666 3519
21 FRUCHART Léa 39000 D21 5907HF 0:24:56 2587 3870152 3543 +956 2976
22 MARCHER-TASSIN Elodie 7852 D45 1705NA 0:25:19 4494 6826386 3490 -1004 4469
23 COFFE Marie-Pierre 20358 D55 9502IF 0:26:34 3562 5677828 3325 -237 3557
24 PRUVOST Virginie 25881 D50 6208HF 0:26:57 3232 3278 +46 3244
25 SCHIMPF Géraldine 30915 D45 5909HF 0:28:18 2361 3122 +761 2684
26 ARROQUI Mathilde 23425 D21 5909HF 0:28:37 3255 3087 -38 0
27 BRETON Christelle 41357 D21 5906HF 0:29:37 2983 0
28 DEWILDE Lydie 40654 D40 5907HF 0:31:40 1146 2790 +1667 1603
29 PRINS Sandrine 21461 D40 6208HF 0:32:33 3574 2714 -860 3574
30 GLASSET Isabelle 17536 D60 7807IF 0:33:03 3378 2673 -705 3378
31 LION Sophie 40384 D40 0207HF 0:33:35 2264 2631 +367 2620
32 SOLTYSIAK Séverine 30320 D50 5906HF 0:35:09 2661 2513 -148 2714
33 JACQUEMART Marina 28528 D21 5909HF 0:37:27 2147 2359 +212 2177
34 FLAMENT Isabelle 41658 D40 5906HF 0:42:10 2095 972
35 POULAIN Odile 1948 D60 5909HF 0:43:56 2797 2011 -786 2797